Whitefield, NH

2:11 AM EDT on August 22, 2014 (GMT -0400)
Berlin Municipal | Change Station
CLOSE
Current Station
Airport
Location: Berlin,
Elevation: 1158 ft
Nearby Weather Stations

Elev 1158 ft 44.58 °N, 71.18 °W | Updated 19 minutes ago

Clear
Clear
56 °F
Feels Like 56 °F
N
0
Wind Variable Wind from North

Today
High -- | Low -- °F
--% Chance of Precip.
Yesterday
High -- | Low -- °F
Precip. -- in
5:57 AM 7:40 PM
Waning Crescent, 10% visible
Pressure 30.11 in
Visibility 10.0 miles
Clouds Clear
Dew Point 55 °F
Humidity 97%
Rainfall 0.00 in
Snow Depth Not available.
UV 0 out of 12
Pollen 6.10 out of 12
Air Quality Not available.
Flu Activity Not available.
METAR KBML 220552Z AUTO 00000KT 10SM CLR 13/13 A3012 RMK AO2 SLP196 60000 T01330128 10172 20128 56005

More Conditions Fewer Conditions

Pressure 30.11 in
Visibility 10.0 miles
Clouds Clear
Dew Point 55 °F
Humidity 97%
Rainfall 0.00 in
Snow Depth Not available.
UV 0 out of 12
Pollen 6.10 out of 12
Air Quality Not available.
Flu Activity Not available.
METAR KBML 220552Z AUTO 00000KT 10SM CLR 13/13 A3012 RMK AO2 SLP196 60000 T01330128 10172 20128 56005

More Conditions Fewer Conditions

10-Day Weather Forecast

Almanac

Astronomy

Aug. 22, 2014 Rise Set
Actual Time 5:57 AM EDT 7:40 PM EDT
Civil Twilight 5:26 AM EDT 8:10 PM EDT
Nautical Twilight 4:49 AM EDT 8:48 PM EDT
Astronomical Twilight 4:08 AM EDT 9:28 PM EDT
Moon 3:14 AM EDT 5:48 PM EDT
Length of Visible Light 14h 44m
Length of Day
13h 42m
Tomorrow will be 2m 51s shorter.
Waning Crescent, 10% of the Moon is Illuminated
Today
Waning Crescent
Aug 25
New
Sep 2
First Quarter
Sep 8
Full
Sep 15
Last Quarter

Today's Extremes

State Highs State Lows

Community

WunderPhotos

Upload Photos

1,746,131 photos uploaded!

Nearby

Air Quality

  Air Quality AQ Index Pollutant
Friday Good
PM2.5
Friday Good
OZONE

Snow Depth

Station Depth Elevation
No new snow has been reported.

Earthquake Activity

City Distance Mag. Time & Date
No recent earthquake activity has been reported nearby.
Minimum magnitude displayed is 2.5.

Coastal Water Temperatures

Place Temperature
No Stations Reporting

Nearby Weather Stations